Calgary International Airport
CYYC : now visible

Airfield :











YOU CAN JOIN US ON...

 
LOGIN :

Register | Disclaimer

   EN    FR    IT 

 









Legend :    VFR   Marginal VFR   IFR   Intensive IFR   Very Intensive IFR
Visi :
Ceiling :
>= 8 km
>= 3000ft
5 to 8 km
1000 to 3000 ft
1500m to 5 km
500 to 1000 ft
800 to 1500m
200 to 500 ft
< 800m
< 200 ft
Symbols :   Thunderstorms  Fog  Heavy snow  Heavy precipitations  Wind > 20 kt






- Airport Elevation : 3557 ft
- IATA code : YYC


CYYC - Calgary International

CURRENT METAR :
  • 041500Z 20003KT 4SM FU BKN190 OVC280 18/10 A3012 RMK FU5AC2CI1 SLP188 DENSITY ALT 4600FT

EXPIRED METARs :
  • 041400Z 20005KT 4SM FU BKN300 16/11 A3010 WS RWYB RMK FU5CI1 CI TR SLP183 DENSITY ALT 4400FT
  • 041300Z 05005KT 4SM FU BKN250 14/11 A3010 RMK FU3CI2 VIS VRB 3 - 5 SLP184 DENSITY ALT 4100FT

TAF TAF CYYC
Valid from the 04 at 15:00 until the 05 at 12:00 UTC


041438Z 0415/0512 20005KT 6SM FU FEW100 BKN300
TEMPO 0415/0422 4SM FU
BECMG 0416/0418 18010KT
FM042200 09008KT P6SM SCT090 SCT250
TEMPO 0422/0502 P6SM VCTS SCT090CB
FM050400 VRB03KT P6SM FEW100 RMK NXT FCST BY 041800Z
CZEG FIR / North America



MET'MAP, your aeronautical weather chart ! - Copyright ORBIFLY December 2007 - Disclaimer

ORBIFLY MET'MAP TEAM :

Programming & Development : Alexandra Zaïnal
Concept & original design : Baudouin d'Aumeries
Assistance for programming : Marc-Olivier Méhu
Technical & hardware support : Manuel Goepfert

Contact : metmap@orbifly.com




SOURCES & CREDITS :

   NOAA       Earth
Advisory